Time;durP1;ratioP1;P1;durP2;ratioP2;P2;SDS_P1;SDS_P2;PMS_P1;PMS_P2;Temp;Humidity;BMP_temperature;BMP_pressure;BME280_temperature;BME280_humidity;BME280_pressure;Samples;Min_cycle;Max_cycle;Signal;HPM_P1;HPM_P2
2022/07/03 00:01:54;;;;;;;4.15;3.65;;;18.20;99.90;;;;;;6190733;28;20273;-68
2022/07/03 00:04:59;;;;;;;3.60;3.50;;;18.20;99.90;;;;;;6177793;28;20290;-68
2022/07/03 00:08:05;;;;;;;5.10;3.80;;;18.20;99.90;;;;;;6166311;28;20278;-68
2022/07/03 00:11:13;;;;;;;9.70;4.25;;;18.10;99.90;;;;;;6166422;29;20278;-68
2022/07/03 00:14:19;;;;;;;4.93;3.92;;;18.00;99.90;;;;;;6165987;29;20464;-68
2022/07/03 00:17:25;;;;;;;4.82;4.40;;;18.00;99.90;;;;;;6166236;29;20298;-68
2022/07/03 00:20:37;;;;;;;6.45;4.10;;;18.00;99.90;;;;;;6166388;28;20274;-68
2022/07/03 00:23:47;;;;;;;6.95;4.35;;;17.90;99.90;;;;;;6165799;29;20636;-68
2022/07/03 00:26:54;;;;;;;4.63;4.22;;;17.90;99.90;;;;;;6166090;29;20303;-68
2022/07/03 00:30:04;;;;;;;8.65;5.85;;;17.80;99.90;;;;;;6164587;29;20274;-68
2022/07/03 00:33:11;;;;;;;7.57;4.50;;;17.80;99.90;;;;;;6165574;29;20466;-68
2022/07/03 00:36:18;;;;;;;5.70;4.70;;;17.80;99.90;;;;;;6165798;29;20278;-68
2022/07/03 00:39:24;;;;;;;5.93;4.50;;;17.70;99.90;;;;;;6165337;28;20280;-68
2022/07/03 00:42:29;;;;;;;5.72;4.15;;;17.70;99.90;;;;;;6165783;28;20457;-67
2022/07/03 00:45:36;;;;;;;3.20;2.92;;;17.70;99.90;;;;;;6165560;29;20294;-68
2022/07/03 00:48:43;;;;;;;3.28;2.55;;;17.60;99.90;;;;;;6165516;29;20270;-67
2022/07/03 00:51:52;;;;;;;2.47;2.38;;;17.60;99.90;;;;;;6165412;29;20274;-68
2022/07/03 00:55:01;;;;;;;2.45;2.33;;;17.70;99.90;;;;;;6164978;29;20561;-68
2022/07/03 00:58:07;;;;;;;8.65;2.60;;;17.50;99.90;;;;;;6165447;28;20283;-68
2022/07/03 01:01:16;;;;;;;2.60;2.10;;;17.50;99.90;;;;;;6165705;28;20274;-68
2022/07/03 01:04:29;;;;;;;2.28;2.10;;;17.50;99.90;;;;;;6164612;29;20270;-68
2022/07/03 01:07:44;;;;;;;2.22;2.13;;;17.40;99.90;;;;;;6164972;28;20290;-68
2022/07/03 01:10:59;;;;;;;3.17;2.15;;;17.40;99.90;;;;;;6188644;28;20573;-68
2022/07/03 01:14:16;;;;;;;2.40;2.13;;;17.40;99.90;;;;;;6188857;28;20274;-68
2022/07/03 01:17:27;;;;;;;2.40;2.13;;;17.40;99.90;;;;;;6188848;28;20282;-68
2022/07/03 01:20:33;;;;;;;3.47;2.28;;;17.40;99.90;;;;;;6188779;28;20453;-68
2022/07/03 01:24:18;;;;;;;4.45;2.10;;;17.30;99.90;;;;;;6188147;28;20287;-68
2022/07/03 01:27:31;;;;;;;2.28;2.17;;;17.30;99.90;;;;;;6188631;28;20294;-68
2022/07/03 01:30:39;;;;;;;2.22;2.13;;;17.30;99.90;;;;;;6188052;28;20279;-68
2022/07/03 01:33:45;;;;;;;2.03;1.90;;;17.20;99.90;;;;;;6188497;28;20577;-68
2022/07/03 01:36:51;;;;;;;2.00;1.90;;;17.20;99.90;;;;;;6188413;28;20282;-68
2022/07/03 01:39:59;;;;;;;3.00;2.08;;;17.20;99.90;;;;;;6188110;28;20453;-68
2022/07/03 01:43:08;;;;;;;7.43;2.03;;;17.10;99.90;;;;;;6188478;28;20278;-68
2022/07/03 01:46:13;;;;;;;2.25;2.05;;;17.10;99.90;;;;;;6187875;28;20273;-68
2022/07/03 01:49:20;;;;;;;2.70;1.80;;;17.10;99.90;;;;;;6187785;28;20269;-68
2022/07/03 01:52:26;;;;;;;2.15;2.08;;;17.10;99.90;;;;;;6193671;28;20269;-68
2022/07/03 01:55:52;;;;;;;2.05;2.00;;;17.00;99.90;;;;;;6196344;28;20580;-68
2022/07/03 01:59:00;;;;;;;3.22;1.95;;;17.00;99.90;;;;;;6196383;28;20565;-68
2022/07/03 02:02:14;;;;;;;2.65;1.80;;;17.00;99.90;;;;;;6195904;28;20273;-68
2022/07/03 02:05:37;;;;;;;4.97;2.28;;;17.00;99.90;;;;;;6181251;28;20266;-68
2022/07/03 02:08:49;;;;;;;2.63;2.40;;;17.00;99.90;;;;;;6172113;28;20302;-68
2022/07/03 02:12:15;;;;;;;3.30;2.10;;;17.00;99.90;;;;;;6172258;28;20274;-68
2022/07/03 02:15:29;;;;;;;2.58;2.28;;;17.00;99.90;;;;;;6172204;29;20277;-68
2022/07/03 02:18:38;;;;;;;2.05;1.95;;;17.00;99.90;;;;;;6172199;29;20274;-68
2022/07/03 02:21:49;;;;;;;1.77;1.70;;;17.00;99.90;;;;;;6171803;29;20275;-68
2022/07/03 02:25:03;;;;;;;2.20;2.00;;;17.00;99.90;;;;;;6172107;28;20364;-68
2022/07/03 02:28:31;;;;;;;2.30;1.88;;;17.10;99.90;;;;;;6171589;29;20612;-68
2022/07/03 02:31:44;;;;;;;2.03;1.92;;;17.10;99.90;;;;;;6172040;29;20581;-67
2022/07/03 02:35:01;;;;;;;5.07;2.20;;;17.10;99.90;;;;;;6171991;28;20274;-68
2022/07/03 02:38:16;;;;;;;2.63;2.03;;;17.10;99.90;;;;;;6171993;28;20279;-67
2022/07/03 02:41:26;;;;;;;2.88;1.90;;;17.10;99.90;;;;;;6171845;28;20283;-67
2022/07/03 02:44:38;;;;;;;2.15;2.08;;;17.10;99.90;;;;;;6171586;28;20554;-67
2022/07/03 02:47:52;;;;;;;1.90;1.80;;;17.20;99.90;;;;;;6171706;28;20467;-67
2022/07/03 02:51:03;;;;;;;3.33;2.22;;;17.10;99.90;;;;;;6171542;28;20573;-67
2022/07/03 02:54:15;;;;;;;2.40;2.20;;;17.10;99.90;;;;;;6171740;28;20279;-67
2022/07/03 02:57:22;;;;;;;3.80;1.90;;;17.10;99.90;;;;;;6171780;28;20573;-67
2022/07/03 03:00:28;;;;;;;2.50;1.90;;;17.10;99.90;;;;;;6171412;29;20270;-68
2022/07/03 03:03:35;;;;;;;2.10;2.05;;;17.10;99.90;;;;;;6168255;28;20579;-67
2022/07/03 03:06:47;;;;;;;1.92;1.83;;;17.10;99.90;;;;;;6167819;28;20274;-67
2022/07/03 03:09:53;;;;;;;2.15;2.05;;;17.20;99.90;;;;;;6182978;28;20302;-67
2022/07/03 03:13:05;;;;;;;1.88;1.88;;;17.20;99.90;;;;;;6191238;28;20432;-67
2022/07/03 03:16:13;;;;;;;1.92;1.83;;;17.20;99.90;;;;;;6191516;28;20564;-67
2022/07/03 03:19:22;;;;;;;4.10;1.70;;;17.30;99.90;;;;;;6191229;28;20277;-67
2022/07/03 03:22:34;;;;;;;1.65;1.55;;;17.40;99.90;;;;;;6191279;28;20289;-67
2022/07/03 03:25:40;;;;;;;2.10;2.00;;;17.50;99.90;;;;;;6191487;28;20274;-67
2022/07/03 03:28:45;;;;;;;2.00;1.90;;;17.50;99.90;;;;;;6190862;28;20338;-67
2022/07/03 03:31:51;;;;;;;2.25;1.90;;;17.50;99.90;;;;;;6190843;28;20274;-67
2022/07/03 03:34:57;;;;;;;1.88;1.80;;;17.60;99.90;;;;;;6191234;28;20270;-67
2022/07/03 03:38:02;;;;;;;2.80;1.98;;;17.50;99.90;;;;;;6190684;28;20278;-67
2022/07/03 03:41:08;;;;;;;3.60;2.00;;;17.60;99.90;;;;;;6191037;28;20270;-67
2022/07/03 03:44:20;;;;;;;2.30;1.80;;;17.60;99.90;;;;;;6190497;28;20278;-67
2022/07/03 03:47:26;;;;;;;2.35;1.70;;;17.70;99.90;;;;;;6190790;28;20290;-67
2022/07/03 03:50:33;;;;;;;1.95;1.92;;;17.70;99.90;;;;;;6190765;28;20297;-67
2022/07/03 03:53:38;;;;;;;2.00;1.90;;;17.70;99.90;;;;;;6190772;28;20270;-67
2022/07/03 03:56:43;;;;;;;4.05;2.00;;;17.90;99.90;;;;;;6190701;28;20274;-67
2022/07/03 03:59:48;;;;;;;1.55;1.45;;;17.90;99.90;;;;;;6190631;28;20281;-67
2022/07/03 04:02:54;;;;;;;2.65;1.73;;;17.90;99.90;;;;;;6190501;28;20270;-67
2022/07/03 04:06:00;;;;;;;3.28;1.70;;;17.90;99.90;;;;;;6170400;28;20554;-67
2022/07/03 04:09:06;;;;;;;1.83;1.70;;;17.90;99.90;;;;;;6166366;28;20497;-67
2022/07/03 04:12:12;;;;;;;1.85;1.85;;;17.90;99.90;;;;;;6166574;28;20274;-67
2022/07/03 04:15:18;;;;;;;3.45;1.88;;;18.00;99.90;;;;;;6166213;28;20274;-67
2022/07/03 04:18:24;;;;;;;2.85;1.90;;;18.00;99.90;;;;;;6166069;28;20283;-67
2022/07/03 04:21:37;;;;;;;2.67;1.95;;;18.10;99.90;;;;;;6165764;29;20279;-67
2022/07/03 04:24:42;;;;;;;2.03;1.83;;;18.10;99.90;;;;;;6165911;28;20479;-67
2022/07/03 04:27:48;;;;;;;1.80;1.80;;;18.20;99.90;;;;;;6166197;28;20274;-67
2022/07/03 04:31:13;;;;;;;1.70;1.60;;;18.20;99.90;;;;;;6166012;29;20573;-67
2022/07/03 04:34:18;;;;;;;2.25;1.90;;;18.30;99.90;;;;;;6165893;29;20359;-67
2022/07/03 04:37:25;;;;;;;1.83;1.73;;;18.30;99.90;;;;;;6165851;29;20274;-67
2022/07/03 04:40:30;;;;;;;2.58;1.80;;;18.40;99.90;;;;;;6165450;29;20279;-67
2022/07/03 04:43:36;;;;;;;1.70;1.60;;;18.50;99.90;;;;;;6165644;29;20278;-67
2022/07/03 04:46:41;;;;;;;1.88;1.80;;;18.50;99.90;;;;;;6165535;29;20274;-67
2022/07/03 04:49:46;;;;;;;1.92;1.85;;;18.50;99.90;;;;;;6165487;29;20479;-67
2022/07/03 04:52:54;;;;;;;1.80;1.70;;;18.50;99.90;;;;;;6165144;29;20274;-67
2022/07/03 04:55:59;;;;;;;2.70;1.63;;;18.70;99.90;;;;;;6165009;29;20561;-67
2022/07/03 04:59:04;;;;;;;2.00;1.90;;;18.80;99.90;;;;;;6165414;29;20274;-67
2022/07/03 05:02:11;;;;;;;1.92;1.83;;;18.80;99.90;;;;;;6165042;28;20278;-67
2022/07/03 05:05:17;;;;;;;1.83;1.73;;;18.90;99.90;;;;;;6165310;29;20556;-67
2022/07/03 05:08:24;;;;;;;2.00;1.85;;;18.90;99.90;;;;;;6168739;28;20447;-67
2022/07/03 05:11:29;;;;;;;2.22;1.70;;;19.00;99.90;;;;;;6188324;28;20294;-67
2022/07/03 05:14:34;;;;;;;2.30;1.60;;;19.00;99.90;;;;;;6188977;28;20401;-67
2022/07/03 05:17:39;;;;;;;1.88;1.77;;;19.10;99.90;;;;;;6188815;28;20274;-67
2022/07/03 05:20:44;;;;;;;2.63;1.65;;;19.20;99.90;;;;;;6188344;28;20282;-67
2022/07/03 05:23:51;;;;;;;1.50;1.50;;;19.20;99.90;;;;;;6188623;28;20278;-67
2022/07/03 05:26:56;;;;;;;2.83;1.80;;;19.60;99.90;;;;;;6188122;28;20278;-67
2022/07/03 05:30:01;;;;;;;1.58;1.58;;;20.30;99.90;;;;;;6188520;28;20297;-68
2022/07/03 05:33:07;;;;;;;1.77;1.67;;;20.50;99.90;;;;;;6187988;28;20455;-68
2022/07/03 05:36:12;;;;;;;3.15;1.58;;;20.80;99.90;;;;;;6188436;28;20273;-68
2022/07/03 05:39:34;;;;;;;1.60;1.50;;;21.10;99.90;;;;;;6188489;28;20277;-68
2022/07/03 05:42:39;;;;;;;1.55;1.45;;;21.20;99.80;;;;;;6188191;28;20279;-66
2022/07/03 05:45:44;;;;;;;3.55;1.70;;;21.30;99.90;;;;;;6187965;28;20552;-66
2022/07/03 05:48:50;;;;;;;1.52;1.50;;;21.30;99.60;;;;;;6187783;28;20274;-68
2022/07/03 05:51:55;;;;;;;1.75;1.65;;;21.30;99.30;;;;;;6187774;28;20289;-68
2022/07/03 05:55:02;;;;;;;1.60;1.60;;;21.40;99.90;;;;;;6187833;28;20294;-66
2022/07/03 05:58:08;;;;;;;1.77;1.67;;;21.50;99.90;;;;;;6187637;28;20269;-68
2022/07/03 06:01:13;;;;;;;3.30;1.45;;;21.60;99.90;;;;;;6187686;28;20282;-68
2022/07/03 06:04:18;;;;;;;4.05;1.30;;;21.70;99.80;;;;;;6180817;28;20270;-66
2022/07/03 06:07:24;;;;;;;1.40;1.38;;;21.80;97.70;;;;;;6164123;29;20278;-68
2022/07/03 06:10:31;;;;;;;1.70;1.40;;;21.70;97.50;;;;;;6163805;28;20302;-66
2022/07/03 06:13:37;;;;;;;1.55;1.30;;;21.80;97.40;;;;;;6163799;29;20274;-66
2022/07/03 06:16:42;;;;;;;3.85;1.50;;;22.00;97.00;;;;;;6163867;28;20274;-66
2022/07/03 06:19:47;;;;;;;1.50;1.40;;;22.00;96.50;;;;;;6163727;29;20270;-66
2022/07/03 06:22:52;;;;;;;1.30;1.30;;;22.00;96.10;;;;;;6164167;28;20275;-66
2022/07/03 06:25:59;;;;;;;4.38;1.40;;;22.00;96.70;;;;;;6163913;29;20274;-66
2022/07/03 06:29:04;;;;;;;1.95;1.25;;;22.10;96.10;;;;;;6164261;28;20469;-67
2022/07/03 06:32:10;;;;;;;2.15;1.60;;;22.20;95.80;;;;;;6163575;29;20294;-67
2022/07/03 06:35:15;;;;;;;3.53;1.30;;;22.30;97.30;;;;;;6163153;29;20274;-67
2022/07/03 06:38:22;;;;;;;4.82;1.45;;;22.30;95.30;;;;;;6165113;28;20275;-67
2022/07/03 06:41:28;;;;;;;3.13;1.30;;;22.40;95.40;;;;;;6168000;29;20278;-67
2022/07/03 06:44:34;;;;;;;1.45;1.40;;;22.50;94.70;;;;;;6168068;29;20275;-67
2022/07/03 06:47:39;;;;;;;1.50;1.40;;;22.30;94.10;;;;;;6167820;29;20461;-67
2022/07/03 06:50:45;;;;;;;1.90;1.33;;;22.30;94.70;;;;;;6167630;29;20294;-67
2022/07/03 06:53:50;;;;;;;1.50;1.40;;;22.40;93.70;;;;;;6167710;29;20271;-67
2022/07/03 06:56:56;;;;;;;1.30;1.20;;;22.40;93.80;;;;;;6167649;29;20295;-67
2022/07/03 07:00:01;;;;;;;1.30;1.30;;;22.50;94.20;;;;;;6167984;29;20279;-67
2022/07/03 07:03:06;;;;;;;9.27;1.85;;;22.70;93.50;;;;;;6168100;28;20290;-67
2022/07/03 07:06:12;;;;;;;3.28;1.60;;;22.70;94.60;;;;;;6168239;28;20443;-67
2022/07/03 07:09:17;;;;;;;1.20;1.20;;;22.80;93.20;;;;;;6178138;28;20301;-67
2022/07/03 07:12:25;;;;;;;1.60;1.30;;;22.80;92.50;;;;;;6190851;28;20293;-67
2022/07/03 07:15:35;;;;;;;3.83;1.40;;;22.90;92.60;;;;;;6191293;28;20203;-67
2022/07/03 07:18:41;;;;;;;2.50;1.25;;;22.90;92.90;;;;;;6191037;28;20274;-67
2022/07/03 07:21:47;;;;;;;1.30;1.30;;;22.90;92.70;;;;;;6191321;28;20282;-67
2022/07/03 07:24:53;;;;;;;3.13;1.30;;;23.00;92.30;;;;;;6191055;28;20556;-67
2022/07/03 07:28:00;;;;;;;1.45;1.40;;;23.00;91.30;;;;;;6191115;28;20278;-67
2022/07/03 07:31:05;;;;;;;1.30;1.30;;;23.00;91.80;;;;;;6190534;28;20293;-67
2022/07/03 07:34:13;;;;;;;2.75;1.30;;;23.00;91.90;;;;;;6190733;28;20273;-67
2022/07/03 07:37:18;;;;;;;2.63;1.33;;;23.10;91.60;;;;;;6190565;28;20279;-67
2022/07/03 07:40:23;;;;;;;1.35;1.35;;;23.10;90.90;;;;;;6190362;28;20278;-67
2022/07/03 07:43:30;;;;;;;1.38;1.27;;;23.20;90.70;;;;;;6190512;28;20461;-67
2022/07/03 07:46:35;;;;;;;3.55;1.30;;;23.20;90.60;;;;;;6190776;28;20293;-67
2022/07/03 07:49:41;;;;;;;3.72;1.20;;;23.30;88.20;;;;;;6190017;28;20278;-67
2022/07/03 07:52:46;;;;;;;2.67;1.50;;;23.30;89.90;;;;;;6190461;28;20298;-67
2022/07/03 07:55:51;;;;;;;3.70;1.17;;;23.40;89.50;;;;;;6189993;28;20273;-67
2022/07/03 07:59:00;;;;;;;4.05;1.13;;;23.40;88.10;;;;;;6190356;28;20278;-67
2022/07/03 08:05:37;;;;;;;1.67;1.25;;;23.50;87.60;;;;;;6173709;28;20458;-67
2022/07/03 08:08:42;;;;;;;2.95;1.23;;;23.50;85.10;;;;;;6165846;28;20489;-70
2022/07/03 08:11:48;;;;;;;5.20;1.20;;;23.60;87.20;;;;;;6166176;29;20326;-68
2022/07/03 08:14:54;;;;;;;2.03;1.20;;;23.50;85.10;;;;;;6165899;29;20274;-67
2022/07/03 08:17:59;;;;;;;1.92;1.35;;;23.60;85.60;;;;;;6165860;28;20380;-67
2022/07/03 08:21:04;;;;;;;3.72;1.20;;;23.60;87.60;;;;;;6165962;29;20274;-67
2022/07/03 08:24:10;;;;;;;2.80;1.42;;;23.60;85.60;;;;;;6166054;29;20278;-67
2022/07/03 08:27:16;;;;;;;1.80;1.40;;;23.50;85.40;;;;;;6165387;29;20445;-67
2022/07/03 08:30:23;;;;;;;1.20;1.20;;;23.40;87.00;;;;;;6165838;29;20275;-67
2022/07/03 08:33:28;;;;;;;1.50;1.40;;;23.50;88.70;;;;;;6165449;29;20291;-67
2022/07/03 08:36:40;;;;;;;1.30;1.20;;;23.70;86.10;;;;;;6165768;28;20271;-67
2022/07/03 08:39:45;;;;;;;5.82;1.85;;;23.60;86.60;;;;;;6165408;29;20271;-67
2022/07/03 08:42:54;;;;;;;1.75;1.10;;;23.70;85.20;;;;;;6165540;28;20278;-66
2022/07/03 08:46:02;;;;;;;1.35;1.13;;;23.70;86.10;;;;;;6165039;29;20275;-67
2022/07/03 08:49:10;;;;;;;1.80;1.20;;;23.60;86.50;;;;;;6165401;29;20452;-68
2022/07/03 08:52:15;;;;;;;1.40;1.40;;;23.50;86.90;;;;;;6165048;28;20290;-68
2022/07/03 08:55:21;;;;;;;2.90;1.15;;;23.40;84.30;;;;;;6164879;28;20294;-68
2022/07/03 08:58:27;;;;;;;2.25;1.52;;;23.40;84.40;;;;;;6164832;29;20266;-68
2022/07/03 09:01:34;;;;;;;1.42;1.40;;;23.50;84.90;;;;;;6163811;28;20274;-68
2022/07/03 09:04:40;;;;;;;1.20;1.20;;;23.50;85.80;;;;;;6164829;29;20275;-68
2022/07/03 09:07:47;;;;;;;2.50;1.48;;;23.60;86.00;;;;;;6164784;29;20270;-68
2022/07/03 09:10:52;;;;;;;1.25;1.20;;;23.40;83.70;;;;;;6188709;28;20306;-68
2022/07/03 09:13:57;;;;;;;1.40;1.40;;;23.30;85.80;;;;;;6188542;28;20302;-68
2022/07/03 09:17:07;;;;;;;1.52;1.42;;;23.50;87.50;;;;;;6188552;28;20274;-68
2022/07/03 09:20:12;;;;;;;1.70;1.48;;;23.70;87.80;;;;;;6188137;28;20274;-68
2022/07/03 09:23:19;;;;;;;7.53;1.50;;;23.70;89.40;;;;;;6187982;28;20450;-68
2022/07/03 09:26:27;;;;;;;2.22;1.30;;;23.70;87.00;;;;;;6188298;28;20269;-68
2022/07/03 09:29:32;;;;;;;1.77;1.63;;;23.80;87.00;;;;;;6188509;28;20446;-68
2022/07/03 09:32:45;;;;;;;3.30;1.17;;;23.80;88.00;;;;;;6188027;28;20600;-68
2022/07/03 09:35:55;;;;;;;6.28;1.38;;;23.80;85.70;;;;;;6188436;28;20273;-68
2022/07/03 09:39:01;;;;;;;0.90;0.90;;;23.80;83.40;;;;;;6188010;28;20294;-68
2022/07/03 09:42:09;;;;;;;168.48;8.18;;;23.80;82.20;;;;;;6188274;28;20278;-68
2022/07/03 09:45:14;;;;;;;2.35;1.00;;;23.80;80.40;;;;;;6188423;28;20270;-68
2022/07/03 09:48:30;;;;;;;1.83;1.10;;;23.80;80.50;;;;;;6188125;28;20273;-68
2022/07/03 09:51:40;;;;;;;1.40;1.40;;;23.90;80.30;;;;;;6188252;28;20270;-68
2022/07/03 09:54:45;;;;;;;2.05;1.05;;;23.90;80.70;;;;;;6188190;28;20297;-68
2022/07/03 09:58:01;;;;;;;1.08;0.93;;;23.90;80.00;;;;;;6188068;28;20281;-68
2022/07/03 10:01:19;;;;;;;2.05;1.20;;;23.70;80.20;;;;;;6188229;28;20276;-68
2022/07/03 10:04:25;;;;;;;1.48;1.00;;;23.60;80.00;;;;;;6180562;28;20443;-68
2022/07/03 10:07:30;;;;;;;1.33;1.23;;;23.60;80.10;;;;;;6164281;28;20270;-68
2022/07/03 10:10:38;;;;;;;2.45;1.23;;;23.70;82.00;;;;;;6163627;28;20498;-68
2022/07/03 10:13:44;;;;;;;3.25;1.00;;;23.70;80.70;;;;;;6167193;28;20471;-68
2022/07/03 10:16:51;;;;;;;1.38;1.20;;;23.70;80.80;;;;;;6168483;28;20322;-68
2022/07/03 10:19:58;;;;;;;2.97;1.27;;;23.70;79.50;;;;;;6168417;28;20436;-69
2022/07/03 10:23:04;;;;;;;1.70;1.20;;;23.60;79.60;;;;;;6168421;28;20479;-68
2022/07/03 10:26:11;;;;;;;1.20;1.20;;;23.70;80.20;;;;;;6168937;28;20279;-68
2022/07/03 10:29:17;;;;;;;1.30;1.30;;;23.60;80.20;;;;;;6168194;29;20274;-68
2022/07/03 10:32:23;;;;;;;1.70;1.00;;;23.60;81.50;;;;;;6168078;28;20554;-68
2022/07/03 10:35:34;;;;;;;1.40;1.02;;;23.60;82.60;;;;;;6167777;29;20290;-68
2022/07/03 10:38:42;;;;;;;1.20;1.10;;;23.60;79.80;;;;;;6168731;28;20569;-68
2022/07/03 10:45:14;;;;;;;1.02;0.95;;;23.50;79.10;;;;;;6168293;28;20278;-68
2022/07/03 10:48:20;;;;;;;0.93;0.93;;;23.60;78.60;;;;;;6167960;29;20276;-68
2022/07/03 10:51:29;;;;;;;1.38;1.13;;;23.50;82.00;;;;;;6167935;29;20270;-68
2022/07/03 10:54:36;;;;;;;1.25;1.25;;;23.50;82.00;;;;;;6167402;29;20294;-68
2022/07/03 10:57:43;;;;;;;5.22;1.33;;;23.60;78.40;;;;;;6167556;28;20411;-68
2022/07/03 11:00:58;;;;;;;1.58;1.20;;;23.70;79.60;;;;;;6166909;29;20278;-68
2022/07/03 11:04:03;;;;;;;3.47;1.10;;;23.70;77.30;;;;;;6167044;29;20542;-68
2022/07/03 11:07:12;;;;;;;1.10;1.10;;;23.70;78.70;;;;;;6167502;28;20279;-68
2022/07/03 11:10:41;;;;;;;1.95;1.10;;;23.70;80.30;;;;;;6185905;28;20597;-69
2022/07/03 11:14:25;;;;;;;1.35;1.25;;;23.80;76.40;;;;;;6188857;28;20297;-68
2022/07/03 11:17:30;;;;;;;2.33;1.05;;;23.90;78.90;;;;;;6173200;28;20278;-68
2022/07/03 11:20:38;;;;;;;1.20;1.10;;;24.10;76.00;;;;;;6191156;28;20273;-68
2022/07/03 11:24:14;;;;;;;1.23;1.10;;;24.30;74.20;;;;;;6190240;28;20278;-68
2022/07/03 11:27:26;;;;;;;1.17;0.90;;;24.30;74.00;;;;;;6191173;28;20274;-69
2022/07/03 11:30:31;;;;;;;1.10;1.10;;;24.30;72.00;;;;;;6190848;28;20280;-69
2022/07/03 11:33:44;;;;;;;1.95;0.80;;;24.50;72.20;;;;;;6190318;28;20273;-67
2022/07/03 11:36:49;;;;;;;0.88;0.88;;;24.60;71.00;;;;;;6190494;28;20269;-67
2022/07/03 11:39:58;;;;;;;1.65;1.20;;;24.70;71.50;;;;;;6190083;28;20278;-68
2022/07/03 11:43:03;;;;;;;0.98;0.98;;;24.60;71.40;;;;;;6190078;28;20278;-68
2022/07/03 11:46:10;;;;;;;1.13;1.02;;;24.60;70.00;;;;;;6190537;28;20569;-68
2022/07/03 11:49:17;;;;;;;1.80;1.70;;;24.70;70.30;;;;;;6190543;28;20278;-68
2022/07/03 11:52:34;;;;;;;3.22;1.00;;;24.70;71.80;;;;;;6190354;28;20273;-68
2022/07/03 11:55:49;;;;;;;0.90;0.90;;;24.70;72.90;;;;;;6189954;28;20294;-67
2022/07/03 11:58:57;;;;;;;1.00;1.00;;;24.70;69.80;;;;;;6190217;28;20549;-68
2022/07/03 12:02:04;;;;;;;1.20;1.10;;;24.60;69.10;;;;;;6189717;28;20440;-68
2022/07/03 12:05:15;;;;;;;1.00;1.00;;;24.70;71.10;;;;;;6176485;28;20567;-68
2022/07/03 12:08:31;;;;;;;4.28;1.42;;;24.70;67.40;;;;;;6165756;28;20306;-68
2022/07/03 12:11:37;;;;;;;2.30;1.30;;;24.80;72.40;;;;;;6165914;29;20279;-68
2022/07/03 12:14:45;;;;;;;2.72;2.15;;;24.90;71.00;;;;;;6166086;28;20290;-68
2022/07/03 12:17:52;;;;;;;1.40;1.30;;;25.10;71.60;;;;;;6165783;29;20271;-68
2022/07/03 12:21:05;;;;;;;5.70;2.20;;;25.10;70.00;;;;;;6165798;29;20279;-68
2022/07/03 12:24:13;;;;;;;2.85;1.10;;;25.20;72.10;;;;;;6165329;29;20554;-68
2022/07/03 12:27:20;;;;;;;2.70;1.60;;;25.20;67.90;;;;;;6165414;29;20279;-68
2022/07/03 12:30:27;;;;;;;2.10;1.90;;;25.10;68.90;;;;;;6165688;28;20275;-68
2022/07/03 12:33:35;;;;;;;1.40;1.40;;;25.10;68.10;;;;;;6165469;29;20279;-68
2022/07/03 12:36:41;;;;;;;1.10;1.10;;;25.00;68.00;;;;;;6165053;28;20290;-68
2022/07/03 12:39:47;;;;;;;1.23;1.23;;;25.10;71.30;;;;;;6165547;28;20453;-68
2022/07/03 12:42:55;;;;;;;1.85;1.40;;;25.10;70.20;;;;;;6165169;29;20273;-68
2022/07/03 12:46:01;;;;;;;1.30;1.30;;;25.30;72.40;;;;;;6165294;29;20278;-68
2022/07/03 12:49:12;;;;;;;2.38;1.00;;;25.30;71.30;;;;;;6165092;29;20274;-68
2022/07/03 12:52:17;;;;;;;2.22;1.13;;;25.20;67.90;;;;;;6164750;29;20274;-68
2022/07/03 12:55:27;;;;;;;4.82;1.10;;;25.20;69.30;;;;;;6164364;29;20298;-68
2022/07/03 13:02:03;;;;;;;1.23;1.13;;;25.40;70.00;;;;;;6165002;28;20514;-68
2022/07/03 13:05:18;;;;;;;1.15;1.15;;;25.40;69.50;;;;;;6164724;28;20270;-68
2022/07/03 13:08:23;;;;;;;3.00;1.42;;;25.50;67.40;;;;;;6166956;28;20306;-67
2022/07/03 13:11:31;;;;;;;1.17;1.17;;;25.60;67.10;;;;;;6188619;28;20277;-67
2022/07/03 13:14:38;;;;;;;2.75;1.20;;;25.80;68.60;;;;;;6188320;28;20274;-67
2022/07/03 13:17:59;;;;;;;1.10;1.10;;;25.80;67.70;;;;;;6187856;28;20289;-66
2022/07/03 13:21:04;;;;;;;1.38;1.15;;;25.70;67.90;;;;;;6187833;28;20274;-69
2022/07/03 13:24:10;;;;;;;1.13;1.10;;;25.50;69.10;;;;;;6187976;28;20273;-68
2022/07/03 13:27:16;;;;;;;1.95;1.00;;;25.40;66.50;;;;;;6188166;28;20308;-68
2022/07/03 13:30:23;;;;;;;2.22;1.02;;;25.40;65.80;;;;;;6187905;28;20461;-68
2022/07/03 13:33:28;;;;;;;1.35;1.33;;;25.20;67.40;;;;;;6187859;28;20274;-68
2022/07/03 13:36:34;;;;;;;2.40;1.33;;;25.20;67.30;;;;;;6188117;28;20340;-68
2022/07/03 13:39:39;;;;;;;3.10;1.27;;;25.10;68.50;;;;;;6187967;28;20273;-68
2022/07/03 13:42:44;;;;;;;1.30;1.20;;;25.10;72.10;;;;;;6188381;28;20457;-68
2022/07/03 13:45:51;;;;;;;2.22;1.05;;;24.90;71.20;;;;;;6188142;28;20281;-68
2022/07/03 13:48:57;;;;;;;1.20;1.20;;;24.90;71.30;;;;;;6187493;28;20310;-68
2022/07/03 13:52:02;;;;;;;1.88;1.25;;;24.90;71.50;;;;;;6188066;28;20273;-68
2022/07/03 13:55:09;;;;;;;1.25;1.15;;;24.90;72.20;;;;;;6187846;28;20274;-68
2022/07/03 13:58:15;;;;;;;1.45;1.30;;;24.80;71.40;;;;;;6187912;28;20294;-68
2022/07/03 14:01:22;;;;;;;1.75;1.55;;;24.70;73.80;;;;;;6187396;28;20278;-68
2022/07/03 14:04:28;;;;;;;1.77;1.58;;;24.60;74.30;;;;;;6179688;28;20267;-68
2022/07/03 14:07:33;;;;;;;1.67;1.30;;;24.50;76.50;;;;;;6163617;29;20278;-68
2022/07/03 14:10:38;;;;;;;1.98;1.30;;;24.50;76.40;;;;;;6163694;28;20597;-68
2022/07/03 14:13:43;;;;;;;2.05;1.30;;;24.40;74.90;;;;;;6163638;28;20274;-68
2022/07/03 14:16:50;;;;;;;3.85;1.27;;;24.40;76.00;;;;;;6163825;29;20303;-68
2022/07/03 14:19:55;;;;;;;1.75;1.38;;;24.40;76.60;;;;;;6163773;29;20279;-68
2022/07/03 14:23:00;;;;;;;1.77;1.30;;;24.50;78.00;;;;;;6163970;29;20270;-68
2022/07/03 14:26:06;;;;;;;5.22;1.30;;;24.50;76.80;;;;;;6163664;28;20283;-68
2022/07/03 14:32:37;;;;;;;3.20;1.20;;;24.40;77.60;;;;;;6164028;28;20270;-68
2022/07/03 14:35:42;;;;;;;1.30;1.30;;;24.40;77.20;;;;;;6163973;28;20270;-68
2022/07/03 14:38:48;;;;;;;1.70;1.15;;;24.40;77.50;;;;;;6163757;29;20295;-69
2022/07/03 14:41:53;;;;;;;1.95;1.50;;;24.30;78.60;;;;;;6163833;29;20270;-68
2022/07/03 14:44:58;;;;;;;1.40;1.30;;;24.30;77.70;;;;;;6163833;29;20274;-68
2022/07/03 14:48:06;;;;;;;1.20;1.20;;;24.20;77.50;;;;;;6163826;28;20283;-68
2022/07/03 14:51:11;;;;;;;1.90;1.02;;;24.40;77.40;;;;;;6163187;29;20278;-68
2022/07/03 14:54:20;;;;;;;2.50;1.17;;;24.50;76.20;;;;;;6163663;29;20278;-68
2022/07/03 14:57:34;;;;;;;1.10;1.10;;;24.70;74.10;;;;;;6163583;29;20290;-68
2022/07/03 15:00:44;;;;;;;1.02;1.02;;;24.60;73.30;;;;;;6166071;28;20280;-67
2022/07/03 15:04:02;;;;;;;4.82;4.18;;;24.50;73.50;;;;;;6166962;29;20274;-67
2022/07/03 15:07:07;;;;;;;2.20;2.10;;;24.40;75.10;;;;;;6167449;28;20274;-67
2022/07/03 15:10:15;;;;;;;1.65;1.55;;;24.20;74.40;;;;;;6185599;28;20600;-67
2022/07/03 15:13:21;;;;;;;2.15;1.10;;;24.20;74.20;;;;;;6191322;28;20273;-68
2022/07/03 15:16:27;;;;;;;3.20;1.40;;;24.20;74.10;;;;;;6190844;28;20274;-67
2022/07/03 15:19:35;;;;;;;4.60;1.25;;;24.30;73.30;;;;;;6191287;28;20279;-68
2022/07/03 15:22:42;;;;;;;2.05;1.00;;;24.20;73.10;;;;;;6190742;28;20505;-68
2022/07/03 15:25:49;;;;;;;2.25;1.08;;;24.10;71.60;;;;;;6190754;28;20273;-68
2022/07/03 15:28:56;;;;;;;1.63;1.00;;;24.00;72.20;;;;;;6190840;28;20278;-68
2022/07/03 15:32:05;;;;;;;2.15;0.98;;;24.10;73.10;;;;;;6190959;28;20278;-68
2022/07/03 15:35:11;;;;;;;3.33;1.70;;;24.10;73.10;;;;;;6190967;28;20350;-68
2022/07/03 15:38:24;;;;;;;1.13;1.10;;;24.10;74.60;;;;;;6190821;28;20293;-68
2022/07/03 15:41:48;;;;;;;1.42;1.27;;;24.00;73.80;;;;;;6189982;28;20270;-69
2022/07/03 15:45:04;;;;;;;1.70;1.48;;;24.00;74.10;;;;;;6190478;28;20278;-67
2022/07/03 15:48:26;;;;;;;1.27;1.27;;;23.80;73.00;;;;;;6190317;28;20274;-67
2022/07/03 15:51:41;;;;;;;4.85;1.20;;;23.80;74.10;;;;;;6190221;28;20561;-67
2022/07/03 15:54:59;;;;;;;1.23;1.00;;;23.70;73.90;;;;;;6190652;28;20290;-67
2022/07/03 15:58:07;;;;;;;1.95;1.08;;;23.80;74.80;;;;;;6190286;28;20297;-67
2022/07/03 16:04:58;;;;;;;2.67;1.20;;;23.70;74.60;;;;;;6180588;28;20266;-69
2022/07/03 16:08:07;;;;;;;3.95;1.25;;;23.70;75.30;;;;;;6165872;28;20590;-67
2022/07/03 16:11:13;;;;;;;1.50;1.40;;;23.80;75.80;;;;;;6165916;28;20271;-67
2022/07/03 16:14:19;;;;;;;1.77;1.30;;;24.00;75.20;;;;;;6166092;29;20266;-67
2022/07/03 16:17:24;;;;;;;7.13;1.17;;;24.20;74.80;;;;;;6165507;29;20271;-69
2022/07/03 16:20:31;;;;;;;2.55;1.05;;;24.10;75.70;;;;;;6166036;29;20279;-67
2022/07/03 16:23:39;;;;;;;1.05;1.05;;;24.10;76.00;;;;;;6165622;28;20274;-67
2022/07/03 16:26:44;;;;;;;1.08;1.08;;;24.00;75.30;;;;;;6166014;28;20275;-68
2022/07/03 16:29:49;;;;;;;1.85;1.15;;;24.00;72.40;;;;;;6165976;28;20278;-68
2022/07/03 16:32:54;;;;;;;1.63;1.00;;;23.80;70.00;;;;;;6165670;29;20275;-67
2022/07/03 16:36:05;;;;;;;1.00;1.00;;;23.90;69.70;;;;;;6165347;29;20553;-67
2022/07/03 16:39:15;;;;;;;1.20;1.20;;;24.10;69.20;;;;;;6164897;28;20294;-68